KADS/ADS METAR and TAF weather

Enter ICAO airport designator
Station Type Date Time Source
KADS METAR 2019/08/21 21:47 UTC NOAA

KADS 212147Z 11010G14KT 10SM SCT050 36/18 A2993


Station Type Date Time Source
KADS Decoded METAR 2019/08/21 21:47 UTC NOAA

Station name not available
Aug 21, 2019 - 05:47 PM EDT / 2019.08.21 2147 UTC
Wind: from the ESE (110 degrees) at 12 MPH (10 KT) gusting to 16 MPH (14 KT):0
Visibility: 10 mile(s):0
Sky conditions: partly cloudy
Temperature: 96 F (36 C)
Heat index: 97.7 F (36.5 C):1
Dew Point: 64 F (18 C)
Relative Humidity: 34%
Pressure (altimeter): 29.93 in. Hg (1013 hPa)
ob: KADS 212147Z 11010G14KT 10SM SCT050 36/18 A2993
cycle: 22

Station Type Date Time Source
KADS TAF UTC NOAA

Error!

Example: see airport list